Time;durP1;ratioP1;P1;durP2;ratioP2;P2;SDS_P1;SDS_P2;PMS_P1;PMS_P2;Temp;Humidity;BMP_temperature;BMP_pressure;BME280_temperature;BME280_humidity;BME280_pressure;Samples;Min_cycle;Max_cycle;Signal;HPM_P1;HPM_P2
2021/09/24 00:00:27;;;;;;;41.37;5.70;;;12.90;81.30;;;;;;5076249;28;20263;-90
2021/09/24 00:02:54;;;;;;;26.87;5.40;;;12.80;81.50;;;;;;5075110;28;20218;-90
2021/09/24 00:05:20;;;;;;;33.13;7.50;;;12.90;81.40;;;;;;5075428;28;20644;-90
2021/09/24 00:07:46;;;;;;;30.47;6.07;;;12.90;81.40;;;;;;5074990;28;20625;-90
2021/09/24 00:10:13;;;;;;;24.47;6.27;;;12.80;81.70;;;;;;5074978;28;20209;-90
2021/09/24 00:12:40;;;;;;;40.97;6.57;;;12.80;81.90;;;;;;5075052;28;20181;-91
2021/09/24 00:15:10;;;;;;;35.00;6.53;;;12.70;82.00;;;;;;5075085;28;20639;-90
2021/09/24 00:17:36;;;;;;;27.13;5.53;;;12.60;82.20;;;;;;5074859;28;20689;-90
2021/09/24 00:20:03;;;;;;;40.90;5.93;;;12.50;82.20;;;;;;5075251;28;20399;-90
2021/09/24 00:22:29;;;;;;;46.97;6.13;;;12.50;82.40;;;;;;5075463;28;20606;-90
2021/09/24 00:24:54;;;;;;;33.30;5.57;;;12.40;82.70;;;;;;5074856;28;20262;-90
2021/09/24 00:27:20;;;;;;;33.83;4.93;;;12.40;82.90;;;;;;5074554;28;20643;-90
2021/09/24 00:29:46;;;;;;;27.40;4.33;;;12.30;83.30;;;;;;5075301;28;20175;-90
2021/09/24 00:32:11;;;;;;;35.10;5.73;;;12.40;83.30;;;;;;5074573;28;20179;-90
2021/09/24 00:34:37;;;;;;;33.07;6.50;;;12.40;83.30;;;;;;5074457;28;20183;-90
2021/09/24 00:37:03;;;;;;;39.47;6.63;;;12.30;83.50;;;;;;5074626;28;20639;-90
2021/09/24 00:39:28;;;;;;;39.07;6.23;;;12.30;83.50;;;;;;5074462;28;20226;-90
2021/09/24 00:41:54;;;;;;;40.03;6.47;;;12.30;83.30;;;;;;5074437;28;20199;-90
2021/09/24 00:44:24;;;;;;;30.87;5.93;;;12.30;83.40;;;;;;5074917;28;20217;-90
2021/09/24 00:46:50;;;;;;;32.93;5.97;;;12.30;83.40;;;;;;5075125;28;20160;-90
2021/09/24 00:49:15;;;;;;;44.37;6.60;;;12.30;83.10;;;;;;5074106;28;20706;-90
2021/09/24 00:51:41;;;;;;;35.17;5.93;;;12.30;83.00;;;;;;5074363;28;20175;-90
2021/09/24 00:54:09;;;;;;;27.83;5.57;;;12.30;83.20;;;;;;5074249;28;20175;-90
2021/09/24 00:56:34;;;;;;;26.20;5.33;;;12.30;83.30;;;;;;5074102;28;20178;-90
2021/09/24 00:59:01;;;;;;;40.57;6.13;;;12.30;83.40;;;;;;5074059;28;20215;-90
2021/09/24 01:01:28;;;;;;;35.00;5.77;;;12.20;83.50;;;;;;5074486;28;20179;-90
2021/09/24 01:03:54;;;;;;;31.90;5.73;;;12.30;83.60;;;;;;5074035;28;20203;-91
2021/09/24 01:06:20;;;;;;;34.63;6.30;;;12.20;83.70;;;;;;5074093;28;20256;-90
2021/09/24 01:08:47;;;;;;;25.77;5.73;;;12.20;83.70;;;;;;5073822;28;20209;-90
2021/09/24 01:11:13;;;;;;;28.83;5.80;;;12.20;83.70;;;;;;5073852;28;20546;-90
2021/09/24 01:13:39;;;;;;;41.93;6.17;;;12.30;83.40;;;;;;5073848;28;20171;-90
2021/09/24 01:16:04;;;;;;;28.43;5.80;;;12.30;82.90;;;;;;5074200;28;20639;-90
2021/09/24 01:18:30;;;;;;;29.67;5.70;;;12.30;83.10;;;;;;5073730;28;20290;-90
2021/09/24 01:20:57;;;;;;;37.33;5.50;;;12.30;83.00;;;;;;5073878;28;20731;-90
2021/09/24 01:23:22;;;;;;;30.80;5.97;;;12.30;83.30;;;;;;5073554;28;20248;-90
2021/09/24 01:25:48;;;;;;;30.37;5.90;;;12.20;83.40;;;;;;5073473;28;20167;-90
2021/09/24 01:28:14;;;;;;;35.50;4.93;;;12.10;83.80;;;;;;5073319;28;20484;-90
2021/09/24 01:30:39;;;;;;;30.83;4.80;;;12.10;84.00;;;;;;5073304;28;20171;-90
2021/09/24 01:33:05;;;;;;;28.37;4.83;;;12.00;83.70;;;;;;5073463;28;20252;-90
2021/09/24 01:35:31;;;;;;;30.13;6.07;;;12.00;83.60;;;;;;5073498;28;20175;-90
2021/09/24 01:37:57;;;;;;;29.37;5.50;;;12.00;83.50;;;;;;5073398;28;20192;-90
2021/09/24 01:40:23;;;;;;;35.37;4.87;;;11.90;83.50;;;;;;5073162;28;20179;-90
2021/09/24 01:42:54;;;;;;;35.07;5.57;;;11.90;83.50;;;;;;5073104;28;20199;-90
2021/09/24 01:45:21;;;;;;;38.37;5.70;;;11.90;83.60;;;;;;5073061;28;20175;-90
2021/09/24 01:47:47;;;;;;;43.47;6.70;;;11.90;83.80;;;;;;5073189;28;20651;-90
2021/09/24 01:50:14;;;;;;;42.63;5.93;;;11.90;83.80;;;;;;5072948;28;20207;-90
2021/09/24 01:52:40;;;;;;;39.93;6.70;;;11.90;83.90;;;;;;5073273;28;20183;-90
2021/09/24 01:55:07;;;;;;;34.57;6.10;;;11.90;84.00;;;;;;5073287;28;20179;-90
2021/09/24 01:57:33;;;;;;;39.57;5.43;;;11.90;83.70;;;;;;5073473;28;20264;-90
2021/09/24 01:59:59;;;;;;;27.47;5.30;;;11.90;83.30;;;;;;5072188;28;20737;-90
2021/09/24 02:02:24;;;;;;;35.50;5.70;;;11.90;83.30;;;;;;5073002;28;20214;-90
2021/09/24 02:04:50;;;;;;;36.17;5.27;;;11.90;83.70;;;;;;5072864;28;20639;-90
2021/09/24 02:07:16;;;;;;;37.40;6.17;;;11.80;84.00;;;;;;5072767;28;20180;-90
2021/09/24 02:09:42;;;;;;;34.40;6.00;;;11.80;83.90;;;;;;5073498;28;20186;-90
2021/09/24 02:12:08;;;;;;;34.70;6.10;;;11.80;83.90;;;;;;5072551;28;20599;-90
2021/09/24 02:14:35;;;;;;;40.27;5.70;;;11.70;84.00;;;;;;5072515;28;20179;-90
2021/09/24 02:17:01;;;;;;;38.67;5.70;;;11.60;84.10;;;;;;5072552;28;20183;-90
2021/09/24 02:19:26;;;;;;;35.07;5.67;;;11.70;84.00;;;;;;5072917;28;20742;-90
2021/09/24 02:21:52;;;;;;;32.67;7.30;;;11.60;84.00;;;;;;5072524;28;20294;-90
2021/09/24 02:24:18;;;;;;;36.97;5.50;;;11.60;84.00;;;;;;5072530;28;20167;-90
2021/09/24 02:26:43;;;;;;;33.50;6.13;;;11.60;84.00;;;;;;5072490;28;20175;-90
2021/09/24 02:29:10;;;;;;;31.33;5.53;;;11.50;84.40;;;;;;5072313;28;20195;-90
2021/09/24 02:31:36;;;;;;;30.37;5.03;;;11.40;84.80;;;;;;5072448;28;20258;-90
2021/09/24 02:34:02;;;;;;;30.10;5.57;;;11.30;84.80;;;;;;5072562;28;20200;-90
2021/09/24 02:36:28;;;;;;;35.67;6.43;;;11.40;84.70;;;;;;5072264;28;20171;-90
2021/09/24 02:38:54;;;;;;;34.37;6.27;;;11.30;85.10;;;;;;5072548;28;20195;-90
2021/09/24 02:41:19;;;;;;;40.17;5.73;;;11.30;85.20;;;;;;5072297;28;20250;-90
2021/09/24 02:43:45;;;;;;;33.53;5.80;;;11.30;85.10;;;;;;5072157;28;20706;-90
2021/09/24 02:46:11;;;;;;;31.47;5.63;;;11.20;85.50;;;;;;5072629;28;20206;-90
2021/09/24 02:48:36;;;;;;;27.90;5.07;;;11.20;85.70;;;;;;5072450;28;20202;-90
2021/09/24 02:51:02;;;;;;;37.33;5.03;;;11.10;85.80;;;;;;5072483;28;20662;-90
2021/09/24 02:53:28;;;;;;;25.93;5.67;;;11.20;85.90;;;;;;5072289;28;20179;-90
2021/09/24 02:55:53;;;;;;;38.77;6.40;;;11.10;86.00;;;;;;5072330;28;20232;-90
2021/09/24 02:58:19;;;;;;;30.37;6.43;;;11.10;86.30;;;;;;5071971;28;20572;-90
2021/09/24 03:00:45;;;;;;;32.77;5.37;;;11.00;86.50;;;;;;5072765;28;20177;-90
2021/09/24 03:03:10;;;;;;;34.83;6.93;;;11.10;86.50;;;;;;5072020;28;20199;-90
2021/09/24 03:05:36;;;;;;;28.90;6.37;;;11.00;86.80;;;;;;5072079;28;20238;-90
2021/09/24 03:08:03;;;;;;;34.43;4.97;;;11.00;87.00;;;;;;5071976;28;20288;-90
2021/09/24 03:10:28;;;;;;;40.87;5.03;;;11.10;86.60;;;;;;5072124;28;20232;-90
2021/09/24 03:12:54;;;;;;;32.90;6.37;;;11.10;86.60;;;;;;5076250;28;20175;-90
2021/09/24 03:15:20;;;;;;;26.97;6.17;;;11.10;86.50;;;;;;5076390;28;20262;-90
2021/09/24 03:17:45;;;;;;;34.93;5.30;;;11.10;86.50;;;;;;5075991;28;20252;-90
2021/09/24 03:20:12;;;;;;;36.00;5.73;;;11.10;86.60;;;;;;5076205;28;20639;-90
2021/09/24 03:22:39;;;;;;;36.10;7.03;;;11.10;86.30;;;;;;5076001;28;20203;-90
2021/09/24 03:25:05;;;;;;;26.40;5.33;;;11.10;86.70;;;;;;5076068;28;20255;-90
2021/09/24 03:27:32;;;;;;;41.23;5.57;;;11.00;86.90;;;;;;5075902;28;20309;-90
2021/09/24 03:29:58;;;;;;;34.43;5.53;;;11.10;86.70;;;;;;5075816;28;20167;-90
2021/09/24 03:32:23;;;;;;;43.73;6.10;;;11.00;86.80;;;;;;5075707;28;20712;-90
2021/09/24 03:34:50;;;;;;;34.53;6.33;;;11.10;86.90;;;;;;5075703;28;20592;-90
2021/09/24 03:37:16;;;;;;;25.43;4.77;;;11.10;87.20;;;;;;5075537;28;20183;-90
2021/09/24 03:39:42;;;;;;;38.23;5.73;;;11.10;87.10;;;;;;5075502;28;20175;-90
2021/09/24 03:42:09;;;;;;;39.20;5.53;;;11.10;87.30;;;;;;5075433;28;20210;-90
2021/09/24 03:44:36;;;;;;;38.13;8.33;;;11.10;87.50;;;;;;5075549;28;20262;-90
2021/09/24 03:47:02;;;;;;;29.83;5.53;;;11.10;87.60;;;;;;5075501;28;20183;-90
2021/09/24 03:49:28;;;;;;;34.10;5.70;;;11.10;87.50;;;;;;5075577;28;20191;-90
2021/09/24 03:51:55;;;;;;;22.43;4.23;;;11.10;87.70;;;;;;5075560;28;20180;-90
2021/09/24 03:54:21;;;;;;;40.37;6.50;;;11.10;87.90;;;;;;5075490;28;20254;-90
2021/09/24 03:56:47;;;;;;;36.03;5.60;;;11.10;87.80;;;;;;5075288;28;20172;-90
2021/09/24 03:59:13;;;;;;;34.13;5.27;;;11.10;88.00;;;;;;5075064;28;20207;-90
2021/09/24 04:01:40;;;;;;;27.40;4.87;;;11.10;88.10;;;;;;5075258;28;20593;-90
2021/09/24 04:04:06;;;;;;;33.07;6.43;;;11.20;88.10;;;;;;5075481;28;20183;-90
2021/09/24 04:06:32;;;;;;;38.17;7.93;;;11.20;88.10;;;;;;5075154;28;20171;-89
2021/09/24 04:08:57;;;;;;;42.07;6.73;;;11.20;88.00;;;;;;5075034;28;20191;-90
2021/09/24 04:11:24;;;;;;;30.87;5.30;;;11.30;88.10;;;;;;5074879;28;20236;-90
2021/09/24 04:13:49;;;;;;;47.63;5.90;;;11.30;88.10;;;;;;5074922;28;20179;-90
2021/09/24 04:16:15;;;;;;;41.03;6.50;;;11.30;88.50;;;;;;5075853;28;20217;-90
2021/09/24 04:18:41;;;;;;;35.77;5.10;;;11.20;88.50;;;;;;5074860;28;20607;-90
2021/09/24 04:21:07;;;;;;;36.37;6.27;;;11.20;88.40;;;;;;5075332;28;20638;-90
2021/09/24 04:23:33;;;;;;;26.13;5.63;;;11.30;88.30;;;;;;5075886;28;20191;-90
2021/09/24 04:25:59;;;;;;;34.77;5.93;;;11.30;88.10;;;;;;5075626;28;20197;-90
2021/09/24 04:28:25;;;;;;;37.77;6.33;;;11.20;88.10;;;;;;5074701;28;20241;-89
2021/09/24 04:30:51;;;;;;;36.73;5.43;;;11.20;88.10;;;;;;5074634;28;20210;-90
2021/09/24 04:33:17;;;;;;;36.00;6.53;;;11.20;88.50;;;;;;5074705;28;20211;-90
2021/09/24 04:35:42;;;;;;;37.17;8.40;;;11.20;88.60;;;;;;5074694;28;20187;-90
2021/09/24 04:38:08;;;;;;;25.97;4.93;;;11.10;88.80;;;;;;5074611;28;20200;-90
2021/09/24 04:40:33;;;;;;;30.50;5.37;;;11.20;88.70;;;;;;5074498;28;20236;-90
2021/09/24 04:42:59;;;;;;;29.30;5.33;;;11.20;88.40;;;;;;5074693;28;20241;-90
2021/09/24 04:45:25;;;;;;;40.23;5.80;;;11.20;88.40;;;;;;5074977;28;20647;-89
2021/09/24 04:47:51;;;;;;;37.73;6.90;;;11.20;88.40;;;;;;5075615;28;20195;-90
2021/09/24 04:50:16;;;;;;;25.97;5.17;;;11.20;88.40;;;;;;5074706;28;20171;-90
2021/09/24 04:52:42;;;;;;;26.30;5.17;;;11.20;88.40;;;;;;5074880;28;20266;-90
2021/09/24 04:55:08;;;;;;;30.50;5.43;;;11.10;88.70;;;;;;5075912;28;20575;-90
2021/09/24 04:57:34;;;;;;;36.23;6.77;;;11.10;88.60;;;;;;5074760;28;20677;-90
2021/09/24 05:00:00;;;;;;;29.93;6.43;;;11.20;88.60;;;;;;5074656;28;20617;-90
2021/09/24 05:02:26;;;;;;;30.70;6.70;;;11.10;88.70;;;;;;5074240;28;20214;-90
2021/09/24 05:04:52;;;;;;;30.30;5.70;;;11.20;88.80;;;;;;5075352;28;20175;-90
2021/09/24 05:07:17;;;;;;;34.67;5.27;;;11.20;88.70;;;;;;5074247;28;20182;-90
2021/09/24 05:09:43;;;;;;;30.47;5.60;;;11.20;88.90;;;;;;5075772;28;20171;-90
2021/09/24 05:12:09;;;;;;;33.67;5.27;;;11.20;88.90;;;;;;5074787;28;20183;-90
2021/09/24 05:14:34;;;;;;;33.07;6.00;;;11.20;89.10;;;;;;5073648;28;20207;-90
2021/09/24 05:17:00;;;;;;;32.17;5.03;;;11.20;89.20;;;;;;5073699;28;20187;-90
2021/09/24 05:19:26;;;;;;;33.43;5.90;;;11.20;89.20;;;;;;5073534;28;20203;-90
2021/09/24 05:21:52;;;;;;;27.87;4.50;;;11.30;89.20;;;;;;5073768;28;20549;-90
2021/09/24 05:24:18;;;;;;;28.13;5.87;;;11.30;89.20;;;;;;5074981;28;20205;-89
2021/09/24 05:26:44;;;;;;;36.47;6.67;;;11.30;89.30;;;;;;5073666;28;20635;-90
2021/09/24 05:29:10;;;;;;;33.93;5.53;;;11.30;89.50;;;;;;5073248;28;20195;-89
2021/09/24 05:31:35;;;;;;;29.87;5.07;;;11.30;89.60;;;;;;5073353;28;20183;-90
2021/09/24 05:34:03;;;;;;;34.67;6.37;;;11.30;89.90;;;;;;5072601;28;20211;-90
2021/09/24 05:36:29;;;;;;;39.80;6.23;;;11.40;89.90;;;;;;5072713;28;20270;-90
2021/09/24 05:38:55;;;;;;;42.60;6.50;;;11.50;89.90;;;;;;5073238;28;20240;-90
2021/09/24 05:41:21;;;;;;;40.73;6.87;;;11.60;90.00;;;;;;5073199;28;20546;-90
2021/09/24 05:43:48;;;;;;;32.23;5.67;;;11.60;90.00;;;;;;5072994;28;20690;-90
2021/09/24 05:46:14;;;;;;;23.70;4.20;;;11.70;90.10;;;;;;5073110;28;20206;-90
2021/09/24 05:48:40;;;;;;;40.77;5.90;;;11.70;90.20;;;;;;5072906;28;20199;-90
2021/09/24 05:51:06;;;;;;;33.03;5.43;;;11.70;90.10;;;;;;5073343;28;20190;-90
2021/09/24 05:53:32;;;;;;;28.73;5.53;;;11.80;90.30;;;;;;5072937;28;20198;-90
2021/09/24 05:55:58;;;;;;;30.57;5.27;;;11.80;90.20;;;;;;5072975;28;20547;-90
2021/09/24 05:58:23;;;;;;;32.07;4.93;;;11.90;90.20;;;;;;5072773;28;20215;-90
2021/09/24 06:00:49;;;;;;;41.20;5.83;;;11.90;90.40;;;;;;5072820;28;20266;-90
2021/09/24 06:03:15;;;;;;;28.37;5.60;;;11.90;90.70;;;;;;5073669;28;20643;-90
2021/09/24 06:05:41;;;;;;;27.77;5.30;;;12.00;90.90;;;;;;5073916;28;20175;-90
2021/09/24 06:08:07;;;;;;;25.17;4.20;;;12.00;90.90;;;;;;5073280;28;20195;-90
2021/09/24 06:10:32;;;;;;;43.00;7.57;;;12.00;91.10;;;;;;5073265;28;20547;-91
2021/09/24 06:12:58;;;;;;;30.10;5.10;;;12.10;91.10;;;;;;5073004;28;20179;-90
2021/09/24 06:15:24;;;;;;;40.67;5.80;;;12.20;91.30;;;;;;5072953;28;20651;-90
2021/09/24 06:17:50;;;;;;;26.90;4.63;;;12.20;91.30;;;;;;5073425;28;20342;-89
2021/09/24 06:20:18;;;;;;;21.93;5.13;;;12.30;91.60;;;;;;5073212;28;20206;-90
2021/09/24 06:22:44;;;;;;;27.57;4.60;;;12.30;91.70;;;;;;5073790;28;20288;-90
2021/09/24 06:25:11;;;;;;;34.50;6.10;;;12.30;92.10;;;;;;5073080;28;20257;-90
2021/09/24 06:27:37;;;;;;;32.60;4.80;;;12.30;92.30;;;;;;5072788;28;20226;-90
2021/09/24 06:30:06;;;;;;;33.90;5.40;;;12.30;92.60;;;;;;5072834;28;20183;-90
2021/09/24 06:32:32;;;;;;;27.43;4.93;;;12.30;92.80;;;;;;5072550;28;20190;-90
2021/09/24 06:34:57;;;;;;;32.57;6.63;;;12.30;92.90;;;;;;5072405;28;20183;-91
2021/09/24 06:37:23;;;;;;;24.63;5.77;;;12.30;93.00;;;;;;5072360;28;20701;-89
2021/09/24 06:39:49;;;;;;;36.90;5.77;;;12.40;93.00;;;;;;5072340;28;20281;-90
2021/09/24 06:42:15;;;;;;;36.67;5.13;;;12.40;93.00;;;;;;5074130;28;20217;-90
2021/09/24 06:44:42;;;;;;;24.97;5.20;;;12.50;92.90;;;;;;5073090;28;20225;-88
2021/09/24 06:47:10;;;;;;;41.10;5.77;;;12.50;92.90;;;;;;5072925;28;20175;-90
2021/09/24 06:49:36;;;;;;;35.13;5.00;;;12.60;92.80;;;;;;5072253;28;20179;-90
2021/09/24 06:52:03;;;;;;;22.07;5.03;;;12.70;92.80;;;;;;5073709;28;20688;-89
2021/09/24 06:54:30;;;;;;;30.00;6.23;;;12.70;92.80;;;;;;5071987;28;20241;-89
2021/09/24 06:56:56;;;;;;;31.73;5.83;;;12.80;92.90;;;;;;5072208;28;20187;-90
2021/09/24 06:59:22;;;;;;;35.43;6.23;;;12.80;92.80;;;;;;5073204;28;20202;-90
2021/09/24 07:01:47;;;;;;;30.37;6.60;;;12.90;92.90;;;;;;5072059;28;20198;-90
2021/09/24 07:04:14;;;;;;;27.50;5.47;;;12.90;92.90;;;;;;5072819;28;20232;-90
2021/09/24 07:06:41;;;;;;;20.70;5.60;;;12.90;92.80;;;;;;5072038;28;20179;-89
2021/09/24 07:09:07;;;;;;;23.63;4.90;;;12.90;92.80;;;;;;5071974;28;20195;-89
2021/09/24 07:11:35;;;;;;;25.40;5.73;;;12.90;92.70;;;;;;5071914;28;20225;-90
2021/09/24 07:14:01;;;;;;;27.43;6.20;;;12.90;92.70;;;;;;5072071;28;20214;-89
2021/09/24 07:16:27;;;;;;;24.03;6.13;;;12.90;92.70;;;;;;5071987;28;20236;-89
2021/09/24 07:18:53;;;;;;;24.57;6.00;;;13.00;92.80;;;;;;5071961;28;20227;-89
2021/09/24 07:21:18;;;;;;;26.13;7.70;;;13.00;92.70;;;;;;5072342;28;20214;-89
2021/09/24 07:23:44;;;;;;;22.63;6.63;;;13.20;92.70;;;;;;5073049;28;20282;-90
2021/09/24 07:26:11;;;;;;;28.50;7.47;;;13.20;92.60;;;;;;5071955;28;20171;-90
2021/09/24 07:28:37;;;;;;;23.13;7.30;;;13.30;92.60;;;;;;5071851;28;20223;-90
2021/09/24 07:31:03;;;;;;;19.13;6.20;;;13.30;92.40;;;;;;5071867;28;20178;-90
2021/09/24 07:33:29;;;;;;;29.20;5.83;;;13.30;92.30;;;;;;5071919;28;20177;-90
2021/09/24 07:35:54;;;;;;;22.93;6.07;;;13.40;92.20;;;;;;5072032;28;20183;-90
2021/09/24 07:38:21;;;;;;;24.23;6.80;;;13.40;92.20;;;;;;5072326;28;20201;-90
2021/09/24 07:40:47;;;;;;;22.73;5.43;;;13.40;92.10;;;;;;5071965;28;20179;-90
2021/09/24 07:43:14;;;;;;;24.60;5.67;;;13.50;92.10;;;;;;5071572;28;20741;-90
2021/09/24 07:45:40;;;;;;;29.63;6.17;;;13.50;92.00;;;;;;5072571;28;20168;-89
2021/09/24 07:48:06;;;;;;;20.40;5.30;;;13.60;92.00;;;;;;5072132;28;20199;-90
2021/09/24 07:50:33;;;;;;;17.50;4.90;;;13.60;92.10;;;;;;5071641;28;20225;-90
2021/09/24 07:52:58;;;;;;;20.93;5.83;;;13.70;91.90;;;;;;5071810;28;20226;-89
2021/09/24 07:55:24;;;;;;;19.93;5.37;;;13.70;91.90;;;;;;5071680;28;20172;-90
2021/09/24 07:57:55;;;;;;;23.97;5.83;;;13.80;91.80;;;;;;5072197;28;20199;-90
2021/09/24 08:00:22;;;;;;;25.90;7.13;;;13.80;91.70;;;;;;5076525;28;20167;-90
2021/09/24 08:02:49;;;;;;;23.17;5.57;;;13.90;91.80;;;;;;5075171;28;20199;-89
2021/09/24 08:05:14;;;;;;;19.87;5.53;;;13.90;91.70;;;;;;5075461;28;20175;-89
2021/09/24 08:07:40;;;;;;;23.37;5.30;;;14.00;91.60;;;;;;5075367;28;20194;-90
2021/09/24 08:10:06;;;;;;;23.77;6.03;;;14.10;91.70;;;;;;5075751;28;20187;-90
2021/09/24 08:12:32;;;;;;;21.50;6.50;;;14.20;91.40;;;;;;5075693;28;20198;-90
2021/09/24 08:14:57;;;;;;;21.70;6.93;;;14.20;91.20;;;;;;5075073;28;20635;-89
2021/09/24 08:17:23;;;;;;;21.57;6.50;;;14.20;91.10;;;;;;5077347;28;20179;-88
2021/09/24 08:19:49;;;;;;;19.00;6.80;;;14.20;91.00;;;;;;5076341;28;20167;-89
2021/09/24 08:22:14;;;;;;;22.57;6.90;;;14.30;91.00;;;;;;5076818;28;20199;-89
2021/09/24 08:24:40;;;;;;;13.37;5.20;;;14.30;91.00;;;;;;5075867;28;20183;-87
2021/09/24 08:27:06;;;;;;;14.60;5.97;;;14.40;91.20;;;;;;5077346;28;20254;-88
2021/09/24 08:29:31;;;;;;;17.37;6.03;;;14.40;91.20;;;;;;5076262;28;20207;-88
2021/09/24 08:31:59;;;;;;;16.93;6.87;;;14.40;91.20;;;;;;5076588;28;20274;-87
2021/09/24 08:34:24;;;;;;;16.37;5.17;;;14.50;91.30;;;;;;5077173;28;20175;-87
2021/09/24 08:36:51;;;;;;;21.10;5.07;;;14.50;91.30;;;;;;5078380;28;20178;-88
2021/09/24 08:39:17;;;;;;;17.77;5.67;;;14.50;91.40;;;;;;5076955;28;20202;-88
2021/09/24 08:41:42;;;;;;;11.30;4.57;;;14.50;91.20;;;;;;5077877;28;20167;-89
2021/09/24 08:44:08;;;;;;;24.93;7.23;;;14.50;91.20;;;;;;5074674;28;20208;-88
2021/09/24 08:46:34;;;;;;;16.47;6.20;;;14.60;91.10;;;;;;5074793;28;20175;-89
2021/09/24 08:49:03;;;;;;;17.97;5.37;;;14.60;90.90;;;;;;5076131;28;20199;-90
2021/09/24 08:51:29;;;;;;;20.00;6.07;;;14.70;90.80;;;;;;5075687;28;20187;-90
2021/09/24 08:53:55;;;;;;;15.17;4.73;;;14.80;90.60;;;;;;5075457;28;20262;-90
2021/09/24 08:56:21;;;;;;;14.77;6.03;;;14.90;90.80;;;;;;5074731;28;20211;-90
2021/09/24 08:58:46;;;;;;;15.67;6.40;;;14.90;90.40;;;;;;5075366;28;20210;-87
2021/09/24 09:01:12;;;;;;;16.40;5.57;;;15.00;90.30;;;;;;5075780;28;20190;-88
2021/09/24 09:03:43;;;;;;;16.97;5.70;;;15.00;90.30;;;;;;5074083;28;20287;-89
2021/09/24 09:06:11;;;;;;;13.33;5.73;;;15.10;90.60;;;;;;5075166;28;20179;-89
2021/09/24 09:08:37;;;;;;;15.60;6.10;;;15.10;90.50;;;;;;5073688;28;20686;-89
2021/09/24 09:11:29;;;;;;;15.17;6.13;;;15.10;90.40;;;;;;5074035;28;20179;-89
2021/09/24 09:13:56;;;;;;;10.90;5.13;;;15.20;90.40;;;;;;5072636;28;20183;-89
2021/09/24 09:16:36;;;;;;;16.87;5.63;;;15.30;90.40;;;;;;5073855;28;20184;-89
2021/09/24 09:19:06;;;;;;;15.27;5.20;;;15.30;90.20;;;;;;5074010;28;20203;-88
2021/09/24 09:21:32;;;;;;;11.93;5.30;;;15.40;90.00;;;;;;5074992;28;20263;-89
2021/09/24 09:23:58;;;;;;;16.00;5.82;;;15.30;89.60;;;;;;5075313;28;20294;-88
2021/09/24 09:26:25;;;;;;;10.55;4.90;;;15.30;89.40;;;;;;5078274;28;20172;-87
2021/09/24 09:28:57;;;;;;;15.88;5.43;;;15.20;89.50;;;;;;5075120;28;20191;-87
2021/09/24 09:31:30;;;;;;;16.10;4.00;;;15.30;89.60;;;;;;5076426;28;20220;-87
2021/09/24 09:34:01;;;;;;;12.48;4.45;;;15.30;89.60;;;;;;5074039;28;20227;-90
2021/09/24 09:36:31;;;;;;;13.60;5.00;;;15.30;89.40;;;;;;5075254;28;20188;-89
2021/09/24 09:38:59;;;;;;;15.15;5.55;;;15.30;89.50;;;;;;5075145;28;20199;-87
2021/09/24 09:41:29;;;;;;;10.98;4.13;;;15.40;89.70;;;;;;5075569;28;20182;-87
2021/09/24 09:43:59;;;;;;;19.98;4.57;;;15.40;89.60;;;;;;5074432;28;20208;-88
2021/09/24 09:46:30;;;;;;;12.13;4.63;;;15.40;89.70;;;;;;5074113;28;20179;-89
2021/09/24 09:49:11;;;;;;;13.00;4.78;;;15.50;89.50;;;;;;5073464;28;20206;-89
2021/09/24 09:51:40;;;;;;;10.52;4.90;;;15.50;89.30;;;;;;5074483;28;20276;-88
2021/09/24 09:54:11;;;;;;;10.25;4.47;;;15.50;89.10;;;;;;5075799;28;20555;-88
2021/09/24 09:56:42;;;;;;;11.57;4.38;;;15.50;89.10;;;;;;5074907;28;20259;-88
2021/09/24 09:59:31;;;;;;;13.20;4.22;;;15.50;89.10;;;;;;5075586;28;20273;-88
2021/09/24 10:02:21;;;;;;;13.53;4.43;;;15.50;89.10;;;;;;5077866;28;20584;-87
2021/09/24 10:04:52;;;;;;;12.85;5.05;;;15.50;89.10;;;;;;5076562;28;20175;-87
2021/09/24 10:07:26;;;;;;;10.75;4.28;;;15.50;89.00;;;;;;5075918;28;20258;-88
2021/09/24 10:10:08;;;;;;;10.48;4.55;;;15.60;89.10;;;;;;5074776;28;20623;-88
2021/09/24 10:12:35;;;;;;;8.27;4.00;;;15.60;88.90;;;;;;5074460;28;20175;-88
2021/09/24 10:15:01;;;;;;;10.35;4.00;;;15.60;89.00;;;;;;5073857;28;20186;-88
2021/09/24 10:17:27;;;;;;;9.98;4.35;;;15.60;88.90;;;;;;5073419;28;20266;-88
2021/09/24 10:19:54;;;;;;;14.95;4.78;;;15.70;88.90;;;;;;5075576;28;20179;-87
2021/09/24 10:22:21;;;;;;;11.07;4.20;;;15.70;88.70;;;;;;5073357;28;20298;-88
2021/09/24 10:24:47;;;;;;;10.00;3.92;;;15.70;88.50;;;;;;5074724;28;20179;-87
2021/09/24 10:27:19;;;;;;;10.90;4.15;;;15.70;88.70;;;;;;5075900;28;20232;-89
2021/09/24 10:29:46;;;;;;;9.60;4.00;;;15.70;88.80;;;;;;5074723;28;20247;-89
2021/09/24 10:32:16;;;;;;;11.77;4.25;;;15.70;88.60;;;;;;5074491;28;20225;-88
2021/09/24 10:35:01;;;;;;;20.52;5.70;;;15.80;88.70;;;;;;5074042;28;20250;-88
2021/09/24 10:37:31;;;;;;;12.93;4.37;;;15.80;88.50;;;;;;5072739;28;20715;-86
2021/09/24 10:39:59;;;;;;;9.13;3.83;;;15.80;88.70;;;;;;5073442;28;20533;-86
2021/09/24 10:42:34;;;;;;;17.17;4.60;;;15.90;88.80;;;;;;5072022;28;20709;-86
2021/09/24 10:45:11;;;;;;;12.75;3.58;;;15.90;88.90;;;;;;5073318;28;20171;-86
2021/09/24 10:47:46;;;;;;;13.70;4.45;;;16.00;89.20;;;;;;5072475;28;20618;-86
2021/09/24 10:50:31;;;;;;;20.98;5.07;;;16.10;89.30;;;;;;5072063;28;20175;-86
2021/09/24 10:53:18;;;;;;;17.05;5.18;;;16.10;89.10;;;;;;5073267;28;20175;-88
2021/09/24 10:55:52;;;;;;;12.07;4.35;;;16.10;89.00;;;;;;5072200;28;20538;-87
2021/09/24 10:58:27;;;;;;;14.75;5.93;;;16.10;89.40;;;;;;5073395;28;20682;-87
2021/09/24 11:00:56;;;;;;;17.67;6.53;;;15.90;89.90;;;;;;5071915;28;20272;-87
2021/09/24 11:03:25;;;;;;;18.80;6.70;;;15.90;90.40;;;;;;5071853;28;20203;-87
2021/09/24 11:06:03;;;;;;;14.95;6.28;;;15.80;91.30;;;;;;5071875;28;20551;-86
2021/09/24 11:08:29;;;;;;;15.15;5.85;;;15.80;91.50;;;;;;5071853;28;20698;-86
2021/09/24 11:11:20;;;;;;;16.90;7.20;;;15.70;91.70;;;;;;5073114;28;20179;-87
2021/09/24 11:13:48;;;;;;;15.50;6.63;;;15.70;91.90;;;;;;5071922;28;20290;-86
2021/09/24 11:16:47;;;;;;;17.23;7.82;;;15.70;91.90;;;;;;5072014;28;20210;-86
2021/09/24 11:19:37;;;;;;;22.15;8.65;;;15.80;91.90;;;;;;5073225;28;20702;-87
2021/09/24 11:22:04;;;;;;;23.40;8.35;;;15.80;91.70;;;;;;5071918;28;20666;-87
2021/09/24 11:24:42;;;;;;;16.42;8.50;;;15.90;91.80;;;;;;5072040;28;20175;-86
2021/09/24 11:27:12;;;;;;;21.38;8.13;;;16.00;91.80;;;;;;5073013;28;20155;-86
2021/09/24 11:30:02;;;;;;;19.55;7.97;;;16.00;91.30;;;;;;5071892;28;20172;-87
2021/09/24 11:32:43;;;;;;;18.98;8.23;;;16.20;91.30;;;;;;5073543;28;20266;-86
2021/09/24 11:35:34;;;;;;;22.05;8.45;;;16.20;90.90;;;;;;5075592;28;20654;-86
2021/09/24 11:38:18;;;;;;;16.35;7.80;;;16.30;90.50;;;;;;5076236;28;20703;-86
2021/09/24 11:40:55;;;;;;;13.38;7.75;;;16.40;90.10;;;;;;5076784;28;20156;-86
2021/09/24 11:43:37;;;;;;;22.95;8.82;;;16.50;90.00;;;;;;5075320;28;20206;-86
2021/09/24 11:46:25;;;;;;;17.60;7.10;;;16.70;89.60;;;;;;5075366;28;20187;-86
2021/09/24 11:48:52;;;;;;;17.60;7.78;;;16.70;88.80;;;;;;5075250;28;20278;-86
2021/09/24 11:51:20;;;;;;;19.60;7.45;;;16.70;88.50;;;;;;5076426;28;20587;-86
2021/09/24 11:53:57;;;;;;;20.42;6.95;;;16.70;88.50;;;;;;5075270;28;20643;-86
2021/09/24 11:56:50;;;;;;;18.13;7.55;;;16.70;88.20;;;;;;5075134;28;20179;-85
2021/09/24 11:59:15;;;;;;;19.75;7.38;;;16.70;88.40;;;;;;5075907;28;20219;-85
2021/09/24 12:01:43;;;;;;;18.77;7.35;;;16.80;87.90;;;;;;5076335;28;20228;-85
2021/09/24 12:04:09;;;;;;;19.90;7.50;;;16.80;87.50;;;;;;5076356;28;20219;-86
2021/09/24 12:06:39;;;;;;;16.30;6.05;;;16.90;87.70;;;;;;5076581;28;20655;-87
2021/09/24 12:09:11;;;;;;;16.13;7.30;;;17.00;87.50;;;;;;5074949;28;20248;-87
2021/09/24 12:11:40;;;;;;;12.48;5.53;;;17.00;87.50;;;;;;5075031;28;20163;-87
2021/09/24 12:14:07;;;;;;;17.40;6.55;;;17.10;87.20;;;;;;5075079;28;20202;-86
2021/09/24 12:16:38;;;;;;;16.35;5.72;;;17.10;87.10;;;;;;5076413;28;20248;-87
2021/09/24 12:19:09;;;;;;;12.13;5.90;;;17.10;86.80;;;;;;5075073;28;20199;-86
2021/09/24 12:21:38;;;;;;;16.73;6.20;;;17.10;86.70;;;;;;5075142;28;20187;-87
2021/09/24 12:24:18;;;;;;;15.25;5.75;;;17.10;86.60;;;;;;5076429;28;20686;-88
2021/09/24 12:26:47;;;;;;;20.77;6.28;;;17.10;86.40;;;;;;5076083;28;20157;-88
2021/09/24 12:29:16;;;;;;;15.82;5.75;;;17.20;86.60;;;;;;5074641;28;20196;-88
2021/09/24 12:31:50;;;;;;;12.57;5.13;;;17.20;86.50;;;;;;5074926;28;20175;-89
2021/09/24 12:34:38;;;;;;;15.82;5.57;;;17.20;86.20;;;;;;5074694;28;20663;-89
2021/09/24 12:37:03;;;;;;;10.85;4.55;;;17.20;86.10;;;;;;5074770;28;20206;-89
2021/09/24 12:39:32;;;;;;;18.45;5.38;;;17.20;85.70;;;;;;5074950;28;20253;-88
2021/09/24 12:42:08;;;;;;;16.08;4.80;;;17.20;85.70;;;;;;5074932;28;20178;-89